Time;durP1;ratioP1;P1;durP2;ratioP2;P2;SDS_P1;SDS_P2;PMS_P1;PMS_P2;Temp;Humidity;BMP_temperature;BMP_pressure;BME280_temperature;BME280_humidity;BME280_pressure;Samples;Min_cycle;Max_cycle;Signal;HPM_P1;HPM_P2
2021/03/14 00:01:37;;;;;;;5.60;0.68;;;6.20;99.90;;;;;;10237738;29;20047;-53
2021/03/14 00:06:58;;;;;;;2.95;0.45;;;6.20;99.90;;;;;;10222971;29;20035;-53
2021/03/14 00:12:19;;;;;;;4.72;0.47;;;6.30;99.90;;;;;;10220001;28;20503;-53
2021/03/14 00:17:40;;;;;;;2.85;1.17;;;6.30;99.90;;;;;;10234384;29;20039;-53
2021/03/14 00:23:01;;;;;;;1.45;0.32;;;6.20;99.90;;;;;;10223461;29;20035;-53
2021/03/14 00:28:23;;;;;;;4.22;0.50;;;6.20;99.90;;;;;;10235908;29;20437;-54
2021/03/14 00:33:44;;;;;;;0.70;0.40;;;6.20;99.90;;;;;;10223326;29;20463;-54
2021/03/14 00:39:05;;;;;;;2.30;0.28;;;6.30;99.90;;;;;;10207428;29;20154;-54
2021/03/14 00:44:26;;;;;;;0.98;0.68;;;6.40;99.90;;;;;;10237717;28;20402;-54
2021/03/14 00:49:47;;;;;;;2.42;0.32;;;6.30;99.90;;;;;;10196929;29;20591;-54
2021/03/14 00:55:08;;;;;;;3.63;0.47;;;6.40;99.90;;;;;;10222940;28;20039;-54
2021/03/14 01:00:29;;;;;;;0.40;0.10;;;6.20;99.90;;;;;;10237114;29;20048;-54
2021/03/14 01:05:50;;;;;;;1.60;0.45;;;6.20;99.90;;;;;;10223581;29;20032;-54
2021/03/14 01:11:11;;;;;;;3.03;0.35;;;6.20;99.90;;;;;;10237002;29;20028;-54
2021/03/14 01:16:32;;;;;;;4.43;0.98;;;6.20;99.90;;;;;;10236673;29;20028;-54
2021/03/14 01:21:54;;;;;;;4.22;1.10;;;6.20;99.90;;;;;;10237549;28;20118;-54
2021/03/14 01:27:15;;;;;;;1.73;0.55;;;6.20;99.90;;;;;;10243175;29;20031;-53
2021/03/14 01:32:36;;;;;;;2.08;0.40;;;6.20;99.90;;;;;;10227459;29;20049;-54
2021/03/14 01:37:57;;;;;;;6.20;0.55;;;6.30;99.90;;;;;;10235464;29;20086;-54
2021/03/14 01:43:18;;;;;;;9.85;1.77;;;6.20;99.90;;;;;;10226517;29;20031;-54
2021/03/14 01:48:39;;;;;;;3.05;1.13;;;6.20;99.90;;;;;;10242365;28;20039;-54
2021/03/14 01:54:00;;;;;;;1.27;0.30;;;6.20;99.90;;;;;;10228606;29;20023;-54
2021/03/14 01:59:22;;;;;;;3.58;0.60;;;6.10;99.90;;;;;;10243104;29;20492;-53
2021/03/14 02:04:43;;;;;;;1.10;0.50;;;6.10;99.90;;;;;;10234446;28;20054;-54
2021/03/14 02:10:05;;;;;;;3.58;0.30;;;6.00;99.90;;;;;;10209392;29;20507;-53
2021/03/14 02:15:27;;;;;;;0.80;0.20;;;5.90;99.90;;;;;;10230181;29;20071;-53
2021/03/14 02:20:49;;;;;;;2.95;0.35;;;5.90;99.90;;;;;;10236720;29;20122;-53
2021/03/14 02:26:19;;;;;;;3.35;0.88;;;5.90;99.90;;;;;;10217016;29;20032;-53
2021/03/14 02:31:42;;;;;;;2.88;0.88;;;5.80;99.90;;;;;;10240961;28;20498;-53
2021/03/14 02:37:06;;;;;;;9.35;0.73;;;5.70;99.90;;;;;;10225761;29;20024;-54
2021/03/14 02:42:29;;;;;;;0.75;0.20;;;5.70;99.90;;;;;;10239654;29;20049;-53
2021/03/14 02:47:50;;;;;;;3.58;1.38;;;5.60;99.90;;;;;;10239868;28;20043;-53
2021/03/14 02:53:12;;;;;;;6.32;0.45;;;5.50;99.90;;;;;;10240252;29;20083;-53
2021/03/14 02:58:35;;;;;;;4.32;0.43;;;5.60;99.90;;;;;;10231625;29;20042;-53
2021/03/14 03:03:59;;;;;;;0.55;0.10;;;5.70;99.90;;;;;;10241154;29;20455;-53
2021/03/14 03:09:20;;;;;;;2.83;0.30;;;5.60;99.90;;;;;;10221844;29;20602;-54
2021/03/14 03:14:42;;;;;;;0.90;0.50;;;5.60;99.90;;;;;;10238400;29;20499;-54
2021/03/14 03:20:06;;;;;;;1.05;0.47;;;5.50;99.90;;;;;;10224418;29;20035;-54
2021/03/14 03:25:28;;;;;;;1.55;0.30;;;5.50;99.90;;;;;;10238745;29;20198;-54
2021/03/14 03:30:49;;;;;;;0.93;0.43;;;5.50;99.90;;;;;;10223334;29;20035;-53
2021/03/14 03:36:10;;;;;;;7.72;0.57;;;5.50;99.90;;;;;;10238754;29;20031;-53
2021/03/14 03:41:32;;;;;;;2.80;1.30;;;5.60;99.90;;;;;;10224292;29;20032;-53
2021/03/14 03:46:58;;;;;;;0.43;0.17;;;5.60;99.90;;;;;;10228034;28;20112;-53
2021/03/14 03:52:21;;;;;;;0.75;0.43;;;5.70;99.90;;;;;;10237137;29;20035;-53
2021/03/14 03:57:43;;;;;;;2.80;0.43;;;5.60;99.90;;;;;;10238277;29;20050;-53
2021/03/14 04:03:05;;;;;;;1.33;0.73;;;5.70;99.90;;;;;;10227277;29;20114;-53
2021/03/14 04:08:28;;;;;;;6.47;0.70;;;5.70;99.90;;;;;;10223648;29;20040;-53
2021/03/14 04:13:52;;;;;;;0.65;0.35;;;5.70;99.90;;;;;;10238346;29;20038;-53
2021/03/14 04:19:17;;;;;;;1.80;0.82;;;5.80;99.90;;;;;;10228741;29;20043;-53
2021/03/14 04:24:38;;;;;;;0.50;0.30;;;5.70;99.90;;;;;;10224318;29;20047;-54
2021/03/14 04:30:01;;;;;;;7.57;0.52;;;5.80;99.90;;;;;;10237687;29;20551;-53
2021/03/14 04:35:25;;;;;;;6.32;1.30;;;5.60;99.90;;;;;;10235644;29;20046;-53
2021/03/14 04:40:47;;;;;;;0.50;0.20;;;5.50;99.90;;;;;;10225327;29;20522;-54
2021/03/14 04:46:12;;;;;;;1.20;0.45;;;5.40;99.90;;;;;;10235084;28;20034;-54
2021/03/14 04:51:35;;;;;;;1.27;0.70;;;5.40;99.90;;;;;;10236119;29;20058;-53
2021/03/14 04:56:57;;;;;;;0.50;0.30;;;5.40;99.90;;;;;;10240680;28;20039;-53
2021/03/14 05:02:20;;;;;;;1.63;0.50;;;5.50;99.90;;;;;;10243069;29;20530;-53
2021/03/14 05:07:43;;;;;;;2.40;0.57;;;5.50;99.90;;;;;;10244429;29;20094;-54
2021/03/14 05:13:05;;;;;;;0.50;0.30;;;5.50;99.90;;;;;;10232382;29;20324;-53
2021/03/14 05:18:26;;;;;;;5.63;1.23;;;5.40;99.90;;;;;;10231175;29;20056;-53
2021/03/14 05:23:48;;;;;;;4.20;0.85;;;5.30;99.90;;;;;;10210119;29;20118;-54
2021/03/14 05:29:11;;;;;;;0.60;0.30;;;5.30;99.90;;;;;;10244321;29;20036;-53
2021/03/14 05:34:32;;;;;;;1.10;0.35;;;5.30;99.90;;;;;;10203090;29;20027;-53
2021/03/14 05:39:53;;;;;;;6.40;0.80;;;5.30;99.90;;;;;;10245139;29;20043;-53
2021/03/14 05:45:15;;;;;;;9.38;1.48;;;5.30;99.90;;;;;;10243096;28;20372;-54
2021/03/14 05:50:36;;;;;;;5.28;0.63;;;5.40;99.90;;;;;;10231026;29;20498;-53
2021/03/14 05:55:58;;;;;;;2.28;0.47;;;5.40;99.90;;;;;;10242943;29;20031;-53
2021/03/14 06:01:23;;;;;;;1.90;0.93;;;5.40;99.90;;;;;;10228252;29;20047;-53
2021/03/14 06:06:46;;;;;;;7.43;1.02;;;5.50;99.90;;;;;;10203437;29;20059;-53
2021/03/14 06:12:12;;;;;;;1.23;0.60;;;5.50;99.90;;;;;;10244142;28;20190;-53
2021/03/14 06:17:34;;;;;;;2.00;0.40;;;5.60;99.90;;;;;;10241585;29;20055;-53
2021/03/14 06:23:06;;;;;;;16.33;1.50;;;5.60;99.90;;;;;;10236773;29;20475;-54
2021/03/14 06:28:35;;;;;;;0.65;0.20;;;5.50;99.90;;;;;;10234831;29;20494;-53
2021/03/14 06:33:56;;;;;;;6.63;0.45;;;5.60;99.90;;;;;;10237100;28;20035;-53
2021/03/14 06:39:22;;;;;;;5.88;0.73;;;5.50;99.90;;;;;;10227066;29;20119;-53
2021/03/14 06:44:43;;;;;;;2.25;0.68;;;5.60;99.90;;;;;;10208610;28;20031;-53
2021/03/14 06:50:05;;;;;;;7.38;1.52;;;5.70;99.90;;;;;;10239324;29;20513;-54
2021/03/14 06:55:26;;;;;;;1.92;0.57;;;5.80;99.90;;;;;;10240328;29;20041;-53
2021/03/14 07:01:09;;;;;;;10.20;1.88;;;5.90;99.90;;;;;;10240763;29;20063;-53
2021/03/14 07:06:30;;;;;;;5.18;1.40;;;6.00;99.90;;;;;;10239105;29;20126;-53
2021/03/14 07:11:51;;;;;;;6.03;0.70;;;6.00;99.90;;;;;;10220493;29;20557;-53
2021/03/14 07:17:32;;;;;;;1.83;0.57;;;6.10;99.90;;;;;;10237025;29;20042;-53
2021/03/14 07:23:30;;;;;;;3.83;1.45;;;6.10;99.90;;;;;;10237871;29;20090;-53
2021/03/14 07:28:51;;;;;;;4.03;1.60;;;6.20;99.90;;;;;;10221544;29;20024;-54
2021/03/14 07:34:12;;;;;;;10.02;1.08;;;6.50;99.90;;;;;;10238932;29;20723;-53
2021/03/14 07:39:34;;;;;;;6.30;0.75;;;6.60;99.90;;;;;;10237067;29;20510;-53
2021/03/14 07:44:55;;;;;;;8.45;1.17;;;6.70;99.90;;;;;;10239789;28;20083;-54
2021/03/14 07:50:20;;;;;;;3.63;1.15;;;6.70;99.90;;;;;;10223761;29;20043;-54
2021/03/14 07:55:52;;;;;;;2.22;1.00;;;6.70;99.90;;;;;;10238428;29;20391;-54
2021/03/14 08:01:27;;;;;;;1.55;0.70;;;6.60;99.90;;;;;;10236914;29;20483;-53
2021/03/14 08:06:49;;;;;;;2.38;1.00;;;6.80;99.90;;;;;;10220443;29;20039;-53
2021/03/14 08:12:21;;;;;;;2.65;1.05;;;6.80;99.90;;;;;;10216894;29;20039;-54
2021/03/14 08:17:42;;;;;;;8.68;1.17;;;6.90;99.90;;;;;;10214112;29;20411;-54
2021/03/14 08:23:05;;;;;;;2.05;0.90;;;7.10;99.90;;;;;;10212445;29;20114;-54
2021/03/14 08:28:32;;;;;;;2.10;0.50;;;7.10;99.90;;;;;;10206350;29;20254;-53
2021/03/14 08:33:53;;;;;;;2.33;0.73;;;7.20;99.90;;;;;;10229045;29;20138;-53
2021/03/14 08:39:31;;;;;;;1.77;0.70;;;7.20;99.90;;;;;;10238908;29;20046;-53
2021/03/14 08:44:52;;;;;;;8.98;0.85;;;7.30;99.90;;;;;;10238046;28;20094;-53
2021/03/14 08:50:14;;;;;;;2.70;0.80;;;7.50;99.90;;;;;;10196922;29;20046;-53
2021/03/14 08:55:35;;;;;;;1.75;0.60;;;7.60;99.90;;;;;;10226933;29;20046;-53
2021/03/14 09:01:07;;;;;;;5.13;0.95;;;7.70;99.90;;;;;;10206690;29;20098;-53
2021/03/14 09:06:29;;;;;;;1.73;0.52;;;7.80;99.90;;;;;;10222740;29;20031;-53
2021/03/14 09:11:52;;;;;;;2.03;0.50;;;8.00;99.90;;;;;;10218361;29;20031;-54
2021/03/14 09:17:15;;;;;;;4.18;0.50;;;8.00;99.90;;;;;;10224602;29;20024;-53
2021/03/14 09:22:37;;;;;;;1.13;0.43;;;8.10;99.90;;;;;;10234884;29;20542;-53
2021/03/14 09:27:59;;;;;;;4.88;0.82;;;8.20;99.90;;;;;;10231614;29;20042;-53
2021/03/14 09:33:20;;;;;;;3.30;0.28;;;8.40;99.90;;;;;;10234583;29;20033;-53
2021/03/14 09:38:41;;;;;;;0.30;0.15;;;8.00;99.90;;;;;;10217836;29;20357;-53
2021/03/14 09:44:13;;;;;;;1.48;0.10;;;7.70;99.90;;;;;;10240767;28;20027;-53
2021/03/14 09:49:34;;;;;;;1.65;0.10;;;7.50;99.90;;;;;;10240743;29;20047;-53
2021/03/14 09:54:55;;;;;;;1.27;0.82;;;7.40;99.90;;;;;;10242178;29;20035;-53
2021/03/14 10:00:21;;;;;;;3.00;1.48;;;7.30;99.90;;;;;;10242063;29;20051;-53
2021/03/14 10:05:48;;;;;;;6.07;1.15;;;7.50;99.90;;;;;;10242907;29;20411;-53
2021/03/14 10:11:15;;;;;;;1.90;0.40;;;7.60;99.90;;;;;;10229922;29;20059;-53
2021/03/14 10:16:39;;;;;;;3.92;0.70;;;7.90;99.90;;;;;;10229120;29;20039;-53
2021/03/14 10:22:00;;;;;;;6.47;0.68;;;8.10;99.90;;;;;;10239027;29;20149;-53
2021/03/14 10:27:22;;;;;;;1.60;0.60;;;8.30;99.90;;;;;;10240413;29;20521;-53
2021/03/14 10:32:47;;;;;;;2.78;0.45;;;8.40;99.90;;;;;;10233968;29;20046;-53
2021/03/14 10:38:22;;;;;;;4.32;0.63;;;8.40;99.90;;;;;;10242341;29;20032;-53
2021/03/14 10:43:53;;;;;;;0.60;0.30;;;8.50;99.90;;;;;;10224217;29;20043;-53
2021/03/14 10:49:33;;;;;;;8.55;0.60;;;8.50;99.90;;;;;;10235253;29;20042;-53
2021/03/14 10:54:54;;;;;;;1.08;0.40;;;8.40;99.90;;;;;;10231036;28;20035;-53
2021/03/14 11:00:16;;;;;;;3.33;0.47;;;8.40;99.90;;;;;;10210972;29;20451;-54
2021/03/14 11:05:39;;;;;;;3.45;0.47;;;8.20;99.90;;;;;;10237676;29;20039;-54
2021/03/14 11:10:59;;;;;;;3.28;0.43;;;8.40;99.90;;;;;;10216763;29;20032;-53
2021/03/14 11:16:24;;;;;;;2.45;0.93;;;8.40;99.90;;;;;;10236542;29;20463;-53
2021/03/14 11:21:45;;;;;;;3.15;1.05;;;8.40;99.90;;;;;;10227991;29;20062;-53
2021/03/14 11:27:07;;;;;;;1.80;0.45;;;8.50;99.90;;;;;;10240191;29;20122;-54
2021/03/14 11:32:28;;;;;;;3.85;0.40;;;8.50;99.90;;;;;;10238539;29;20069;-54
2021/03/14 11:37:49;;;;;;;2.28;0.38;;;8.40;99.90;;;;;;10238243;29;20118;-54
2021/03/14 11:43:10;;;;;;;3.13;0.50;;;9.10;99.90;;;;;;10235162;29;20078;-54
2021/03/14 11:48:31;;;;;;;3.35;0.65;;;9.40;99.90;;;;;;10236868;28;20071;-54
2021/03/14 11:53:52;;;;;;;2.45;1.00;;;9.30;99.90;;;;;;10192598;29;20421;-54
2021/03/14 11:59:14;;;;;;;0.85;0.35;;;9.40;99.90;;;;;;10198794;29;20039;-53
2021/03/14 12:04:34;;;;;;;1.70;0.60;;;9.00;99.90;;;;;;10159079;29;20070;-53
2021/03/14 12:09:55;;;;;;;3.30;0.68;;;8.90;99.90;;;;;;10187538;29;20040;-53
2021/03/14 12:15:17;;;;;;;1.60;0.60;;;8.70;99.90;;;;;;10197854;29;20424;-54
2021/03/14 12:20:38;;;;;;;3.20;0.45;;;10.50;99.90;;;;;;10179382;29;20107;-54
2021/03/14 12:26:01;;;;;;;2.25;1.10;;;11.90;99.90;;;;;;10160646;29;20028;-54
2021/03/14 12:31:23;;;;;;;1.35;0.30;;;12.20;99.90;;;;;;10197839;29;20211;-54
2021/03/14 12:36:44;;;;;;;5.55;1.40;;;11.10;99.90;;;;;;10146603;29;20480;-53
2021/03/14 12:42:05;;;;;;;3.25;0.73;;;10.50;99.90;;;;;;10163789;29;20075;-53
2021/03/14 12:47:26;;;;;;;5.38;1.05;;;10.20;99.90;;;;;;10192905;29;20439;-53
2021/03/14 12:52:47;;;;;;;2.33;1.00;;;10.50;99.90;;;;;;10226067;29;20463;-53
2021/03/14 12:58:08;;;;;;;0.55;0.30;;;9.80;99.90;;;;;;10237547;29;20044;-53
2021/03/14 13:03:29;;;;;;;3.03;0.50;;;9.40;99.90;;;;;;10221994;29;20032;-53
2021/03/14 13:08:50;;;;;;;1.30;0.50;;;9.30;99.90;;;;;;10230488;29;20043;-53
2021/03/14 13:14:11;;;;;;;3.03;0.52;;;9.00;99.90;;;;;;10236016;29;20023;-53
2021/03/14 13:19:32;;;;;;;1.23;0.40;;;8.80;99.90;;;;;;10239818;28;20039;-53
2021/03/14 13:24:53;;;;;;;1.42;0.52;;;8.60;99.90;;;;;;10242757;29;20039;-53
2021/03/14 13:30:14;;;;;;;1.80;0.47;;;9.30;99.90;;;;;;10244347;29;20625;-53
2021/03/14 13:35:35;;;;;;;5.97;0.82;;;9.20;99.90;;;;;;10236724;28;20492;-54
2021/03/14 13:40:56;;;;;;;1.30;0.60;;;9.00;99.90;;;;;;10243283;29;20495;-53
2021/03/14 13:46:17;;;;;;;11.48;1.52;;;9.10;99.90;;;;;;10241903;28;20046;-54
2021/03/14 13:51:39;;;;;;;2.30;0.30;;;9.10;99.90;;;;;;10242148;29;20051;-54
2021/03/14 13:57:00;;;;;;;3.35;0.75;;;8.90;99.90;;;;;;10244481;29;20427;-54
2021/03/14 14:02:22;;;;;;;2.30;0.57;;;8.70;99.90;;;;;;10242357;29;20043;-54
2021/03/14 14:07:44;;;;;;;1.42;0.22;;;8.80;99.90;;;;;;10221128;28;20123;-53
2021/03/14 14:13:05;;;;;;;8.13;0.60;;;10.30;99.90;;;;;;10210855;28;20043;-53
2021/03/14 14:18:27;;;;;;;2.30;0.43;;;13.10;99.90;;;;;;10211508;28;20480;-54
2021/03/14 14:23:48;;;;;;;4.53;1.20;;;12.60;99.90;;;;;;10243277;28;20039;-53
2021/03/14 14:29:09;;;;;;;1.65;0.30;;;11.30;99.90;;;;;;10223504;28;20032;-54
2021/03/14 14:34:30;;;;;;;2.05;0.50;;;10.70;99.90;;;;;;10240381;29;20736;-54
2021/03/14 14:39:51;;;;;;;2.83;0.95;;;11.40;99.90;;;;;;10207966;29;20041;-54
2021/03/14 14:45:13;;;;;;;1.83;0.90;;;12.20;99.90;;;;;;10240572;28;20122;-53
2021/03/14 14:50:34;;;;;;;6.20;0.50;;;11.70;99.90;;;;;;10241256;29;20047;-53
2021/03/14 14:55:55;;;;;;;3.33;0.52;;;10.90;99.90;;;;;;10240978;29;20027;-53
2021/03/14 15:01:15;;;;;;;3.15;0.45;;;10.40;99.90;;;;;;10204577;28;20047;-53
2021/03/14 15:06:37;;;;;;;11.65;0.85;;;10.20;99.90;;;;;;10240273;29;20042;-53
2021/03/14 15:11:58;;;;;;;3.22;0.52;;;10.10;99.90;;;;;;10235222;29;20046;-53
2021/03/14 15:17:19;;;;;;;2.65;0.38;;;10.30;99.90;;;;;;10224328;29;20047;-54
2021/03/14 15:22:40;;;;;;;2.33;0.60;;;10.30;99.90;;;;;;10225851;29;20132;-53
2021/03/14 15:28:01;;;;;;;7.95;0.80;;;9.90;99.90;;;;;;10234054;28;20059;-53
2021/03/14 15:33:22;;;;;;;1.10;0.20;;;9.60;99.90;;;;;;10224909;29;20049;-53
2021/03/14 15:38:43;;;;;;;5.10;0.63;;;9.50;99.90;;;;;;10210159;28;20042;-53
2021/03/14 15:44:05;;;;;;;1.08;0.43;;;9.50;99.90;;;;;;10239951;28;20023;-53
2021/03/14 15:49:26;;;;;;;1.88;0.38;;;9.30;99.90;;;;;;10239147;29;20063;-53
2021/03/14 15:54:47;;;;;;;3.17;0.57;;;9.20;99.90;;;;;;10200550;29;20052;-53
2021/03/14 16:00:08;;;;;;;4.03;0.45;;;9.20;99.90;;;;;;10199972;29;20492;-53
2021/03/14 16:05:30;;;;;;;0.77;0.30;;;9.00;99.90;;;;;;10198646;29;20102;-53
2021/03/14 16:10:50;;;;;;;6.30;0.32;;;9.00;99.90;;;;;;10197694;29;20091;-53
2021/03/14 16:16:11;;;;;;;4.55;0.65;;;8.90;99.90;;;;;;10190411;29;20035;-53
2021/03/14 16:21:32;;;;;;;1.13;0.35;;;8.90;99.90;;;;;;10192946;29;20182;-53
2021/03/14 16:26:53;;;;;;;2.28;0.20;;;8.90;99.90;;;;;;10199102;29;20065;-53
2021/03/14 16:32:15;;;;;;;2.03;0.45;;;8.80;99.90;;;;;;10182387;29;20127;-53
2021/03/14 16:37:36;;;;;;;1.77;0.68;;;8.70;99.90;;;;;;10184312;29;20028;-53
2021/03/14 16:42:57;;;;;;;2.63;1.02;;;8.70;99.90;;;;;;10198986;29;20092;-53
2021/03/14 16:48:18;;;;;;;8.07;1.80;;;9.00;99.90;;;;;;10197147;29;20381;-53
2021/03/14 16:53:39;;;;;;;3.45;1.15;;;8.90;99.90;;;;;;10233410;28;20046;-53
2021/03/14 16:59:00;;;;;;;1.75;0.38;;;8.70;99.90;;;;;;10245201;29;20046;-53
2021/03/14 17:04:21;;;;;;;3.72;0.80;;;8.60;99.90;;;;;;10244298;29;20042;-53
2021/03/14 17:09:42;;;;;;;1.30;0.50;;;8.40;99.90;;;;;;10244946;29;20051;-54
2021/03/14 17:15:05;;;;;;;1.90;0.40;;;8.20;99.90;;;;;;10212827;29;20440;-53
2021/03/14 17:20:26;;;;;;;2.55;0.85;;;8.10;99.90;;;;;;10236891;29;20442;-53
2021/03/14 17:25:49;;;;;;;7.13;2.20;;;8.00;99.90;;;;;;10245909;29;20035;-53
2021/03/14 17:31:10;;;;;;;3.90;1.05;;;8.10;99.90;;;;;;10246605;28;20494;-53
2021/03/14 17:36:31;;;;;;;4.28;1.83;;;8.00;99.90;;;;;;10243986;29;22144;-53
2021/03/14 17:41:52;;;;;;;2.28;0.70;;;7.90;99.90;;;;;;10240522;29;20081;-53
2021/03/14 17:47:13;;;;;;;10.07;1.80;;;7.80;99.90;;;;;;10241195;28;20038;-53
2021/03/14 17:52:34;;;;;;;4.13;1.40;;;7.70;99.90;;;;;;10242778;29;20035;-53
2021/03/14 17:57:55;;;;;;;2.38;1.15;;;7.60;99.90;;;;;;10243076;29;20027;-53
2021/03/14 18:03:16;;;;;;;2.85;0.98;;;7.60;99.90;;;;;;10242143;28;20039;-53
2021/03/14 18:08:37;;;;;;;1.75;0.60;;;7.60;99.90;;;;;;10241101;29;20073;-53
2021/03/14 18:13:58;;;;;;;3.50;1.70;;;7.50;99.90;;;;;;10224436;29;20031;-53
2021/03/14 18:19:19;;;;;;;5.68;1.52;;;7.30;99.90;;;;;;10227952;29;20051;-52
2021/03/14 18:24:40;;;;;;;5.47;1.70;;;7.30;99.90;;;;;;10243780;28;20035;-53
2021/03/14 18:30:04;;;;;;;10.82;2.20;;;7.20;99.90;;;;;;10234523;29;20039;-53
2021/03/14 18:35:25;;;;;;;3.83;1.15;;;7.30;99.90;;;;;;10234589;29;20399;-53
2021/03/14 18:40:46;;;;;;;3.22;0.47;;;7.30;99.90;;;;;;10240993;29;20047;-53
2021/03/14 18:46:07;;;;;;;2.47;0.32;;;7.30;99.90;;;;;;10241822;28;20499;-52
2021/03/14 18:51:29;;;;;;;1.90;0.45;;;7.40;99.90;;;;;;10240253;29;20051;-53
2021/03/14 18:56:50;;;;;;;4.25;0.57;;;7.40;99.90;;;;;;10241950;29;20061;-53
2021/03/14 19:02:11;;;;;;;4.60;1.20;;;7.30;99.90;;;;;;10239372;29;20071;-53
2021/03/14 19:07:33;;;;;;;2.90;1.17;;;7.30;99.90;;;;;;10239593;29;20086;-53
2021/03/14 19:12:54;;;;;;;4.18;1.25;;;7.30;99.90;;;;;;10241959;28;20031;-53
2021/03/14 19:18:15;;;;;;;3.00;0.90;;;7.30;99.90;;;;;;10223786;28;20028;-53
2021/03/14 19:23:36;;;;;;;4.03;1.38;;;7.40;99.90;;;;;;10220040;29;20131;-53
2021/03/14 19:28:57;;;;;;;2.90;0.82;;;7.40;99.90;;;;;;10237261;29;20031;-53
2021/03/14 19:34:18;;;;;;;2.78;1.30;;;7.30;99.90;;;;;;10233471;28;20130;-53
2021/03/14 19:39:39;;;;;;;3.50;1.90;;;7.20;99.90;;;;;;10239605;29;20067;-52
2021/03/14 19:45:01;;;;;;;3.45;1.42;;;7.10;99.90;;;;;;10240991;28;20023;-53
2021/03/14 19:50:22;;;;;;;6.90;2.15;;;7.20;99.90;;;;;;10238812;29;20122;-53
2021/03/14 19:55:43;;;;;;;1.35;0.47;;;7.30;99.90;;;;;;10238985;29;20032;-53
2021/03/14 20:01:04;;;;;;;1.88;0.70;;;7.30;99.90;;;;;;10239569;28;20403;-53
2021/03/14 20:06:25;;;;;;;2.33;0.60;;;7.30;99.90;;;;;;10237953;29;20035;-53
2021/03/14 20:11:47;;;;;;;2.28;0.45;;;7.30;99.90;;;;;;10206728;29;20106;-53
2021/03/14 20:17:09;;;;;;;1.50;0.70;;;7.40;99.90;;;;;;10234124;29;20027;-53
2021/03/14 20:22:30;;;;;;;2.83;0.70;;;7.50;99.90;;;;;;10237770;28;20054;-53
2021/03/14 20:27:51;;;;;;;2.60;0.60;;;7.60;99.90;;;;;;10228792;28;20031;-53
2021/03/14 20:33:12;;;;;;;4.35;0.57;;;7.50;99.90;;;;;;10234030;28;20551;-53
2021/03/14 20:38:33;;;;;;;8.07;1.30;;;7.40;99.90;;;;;;10236186;29;20051;-53
2021/03/14 20:43:54;;;;;;;2.13;1.00;;;7.40;99.90;;;;;;10237440;29;20031;-53
2021/03/14 20:49:15;;;;;;;1.23;0.47;;;7.40;99.90;;;;;;10235854;29;20035;-53
2021/03/14 20:54:36;;;;;;;6.18;0.65;;;7.40;99.90;;;;;;10237929;29;20513;-53
2021/03/14 20:59:57;;;;;;;3.13;0.38;;;7.30;99.90;;;;;;10236257;29;20158;-53
2021/03/14 21:05:18;;;;;;;1.55;0.35;;;7.30;99.90;;;;;;10235832;29;20115;-53
2021/03/14 21:10:39;;;;;;;3.63;0.63;;;7.30;99.90;;;;;;10237320;29;20538;-53
2021/03/14 21:16:00;;;;;;;5.28;0.90;;;7.40;99.90;;;;;;10232079;29;20463;-53
2021/03/14 21:21:21;;;;;;;7.13;0.60;;;7.40;99.90;;;;;;10212264;29;20431;-53
2021/03/14 21:26:42;;;;;;;3.85;1.33;;;7.40;99.90;;;;;;10235980;29;20098;-53
2021/03/14 21:32:03;;;;;;;1.25;0.35;;;7.40;99.90;;;;;;10224885;28;20329;-53
2021/03/14 21:37:24;;;;;;;2.05;0.60;;;7.40;99.90;;;;;;10221540;28;20024;-53
2021/03/14 21:42:45;;;;;;;2.63;0.63;;;7.40;99.90;;;;;;10243767;29;20043;-53
2021/03/14 21:48:08;;;;;;;0.95;0.30;;;7.30;99.90;;;;;;10235520;28;20538;-53
2021/03/14 21:53:29;;;;;;;0.68;0.20;;;7.20;99.90;;;;;;10230422;29;20562;-53
2021/03/14 21:58:50;;;;;;;0.40;0.15;;;7.10;99.90;;;;;;10230199;29;20054;-53
2021/03/14 22:04:11;;;;;;;1.45;0.43;;;7.00;99.90;;;;;;10234582;29;20388;-53
2021/03/14 22:09:33;;;;;;;2.63;1.02;;;6.90;99.90;;;;;;10242033;28;20451;-53
2021/03/14 22:14:54;;;;;;;3.17;1.02;;;6.70;99.90;;;;;;10244777;28;20329;-53
2021/03/14 22:20:17;;;;;;;2.92;0.75;;;6.70;99.90;;;;;;10240614;29;20039;-53
2021/03/14 22:25:38;;;;;;;7.57;0.50;;;6.70;99.90;;;;;;10217812;29;20035;-53
2021/03/14 22:30:59;;;;;;;0.30;0.10;;;6.60;99.90;;;;;;10242112;29;20039;-53
2021/03/14 22:36:20;;;;;;;1.60;0.47;;;6.60;99.90;;;;;;10236119;29;20042;-53
2021/03/14 22:41:41;;;;;;;3.03;1.48;;;6.60;99.90;;;;;;10212202;28;20516;-53
2021/03/14 22:47:03;;;;;;;2.45;0.38;;;6.50;99.90;;;;;;10241201;28;20031;-53
2021/03/14 22:52:24;;;;;;;1.20;0.30;;;6.60;99.90;;;;;;10240830;28;20477;-53
2021/03/14 22:57:45;;;;;;;0.75;0.25;;;6.60;99.90;;;;;;10241144;29;20134;-53
2021/03/14 23:03:09;;;;;;;6.60;0.55;;;6.60;99.90;;;;;;10240402;29;20047;-53
2021/03/14 23:08:33;;;;;;;2.35;0.30;;;6.60;99.90;;;;;;10235150;29;20391;-53
2021/03/14 23:13:54;;;;;;;3.50;0.75;;;6.70;99.90;;;;;;10241436;29;20087;-53
2021/03/14 23:19:15;;;;;;;0.38;0.20;;;6.60;99.90;;;;;;10224018;29;20523;-53
2021/03/14 23:24:36;;;;;;;1.55;0.70;;;6.60;99.90;;;;;;10204484;29;20047;-53
2021/03/14 23:29:58;;;;;;;3.75;0.45;;;6.60;99.90;;;;;;10240094;29;20031;-53
2021/03/14 23:35:20;;;;;;;0.63;0.10;;;6.50;99.90;;;;;;10238917;29;20035;-53
2021/03/14 23:40:41;;;;;;;1.45;0.38;;;6.50;99.90;;;;;;10215602;29;20487;-53
2021/03/14 23:46:02;;;;;;;1.85;0.73;;;6.60;99.90;;;;;;10199492;29;20508;-53
2021/03/14 23:51:23;;;;;;;1.25;0.55;;;6.60;99.90;;;;;;10231583;29;20253;-53
2021/03/14 23:56:44;;;;;;;1.02;0.20;;;6.50;99.90;;;;;;10240276;29;20388;-53
